sensor_id;sensor_type;location;lat;lon;timestamp;P1;durP1;ratioP1;P2;durP2;ratioP2
30519;SDS011;17300;50.374;8.006;2023-02-08T00:02:17;8.43;;;6.03;;
30519;SDS011;17300;50.374;8.006;2023-02-08T00:04:45;7.07;;;6.20;;
30519;SDS011;17300;50.374;8.006;2023-02-08T00:07:11;7.63;;;6.27;;
30519;SDS011;17300;50.374;8.006;2023-02-08T00:09:38;7.33;;;6.03;;
30519;SDS011;17300;50.374;8.006;2023-02-08T00:12:05;7.47;;;5.87;;
30519;SDS011;17300;50.374;8.006;2023-02-08T00:14:32;9.97;;;6.60;;
30519;SDS011;17300;50.374;8.006;2023-02-08T00:16:58;8.13;;;6.40;;
30519;SDS011;17300;50.374;8.006;2023-02-08T00:19:25;9.73;;;6.83;;
30519;SDS011;17300;50.374;8.006;2023-02-08T00:21:53;7.77;;;6.60;;
30519;SDS011;17300;50.374;8.006;2023-02-08T00:24:19;9.17;;;6.30;;
30519;SDS011;17300;50.374;8.006;2023-02-08T00:26:46;9.43;;;6.43;;
30519;SDS011;17300;50.374;8.006;2023-02-08T00:29:13;7.93;;;6.57;;
30519;SDS011;17300;50.374;8.006;2023-02-08T00:31:39;7.37;;;6.17;;
30519;SDS011;17300;50.374;8.006;2023-02-08T00:34:06;8.17;;;6.43;;
30519;SDS011;17300;50.374;8.006;2023-02-08T00:36:33;8.57;;;6.67;;
30519;SDS011;17300;50.374;8.006;2023-02-08T00:39:01;8.50;;;6.90;;
30519;SDS011;17300;50.374;8.006;2023-02-08T00:41:27;9.60;;;6.63;;
30519;SDS011;17300;50.374;8.006;2023-02-08T00:43:54;8.03;;;6.17;;
30519;SDS011;17300;50.374;8.006;2023-02-08T00:46:21;9.50;;;6.80;;
30519;SDS011;17300;50.374;8.006;2023-02-08T00:48:47;9.97;;;6.87;;
30519;SDS011;17300;50.374;8.006;2023-02-08T00:51:14;10.43;;;7.17;;
30519;SDS011;17300;50.374;8.006;2023-02-08T00:53:41;9.87;;;6.90;;
30519;SDS011;17300;50.374;8.006;2023-02-08T00:56:11;11.73;;;7.37;;
30519;SDS011;17300;50.374;8.006;2023-02-08T00:58:39;8.17;;;6.53;;
30519;SDS011;17300;50.374;8.006;2023-02-08T01:01:06;8.97;;;6.87;;
30519;SDS011;17300;50.374;8.006;2023-02-08T01:03:34;11.07;;;7.70;;
30519;SDS011;17300;50.374;8.006;2023-02-08T01:06:02;10.07;;;7.37;;
30519;SDS011;17300;50.374;8.006;2023-02-08T01:08:30;9.13;;;6.70;;
30519;SDS011;17300;50.374;8.006;2023-02-08T01:11:00;12.93;;;7.10;;
30519;SDS011;17300;50.374;8.006;2023-02-08T01:13:29;10.13;;;6.70;;
30519;SDS011;17300;50.374;8.006;2023-02-08T01:16:03;7.87;;;6.43;;
30519;SDS011;17300;50.374;8.006;2023-02-08T01:18:31;7.90;;;6.53;;
30519;SDS011;17300;50.374;8.006;2023-02-08T01:21:02;8.23;;;6.80;;
30519;SDS011;17300;50.374;8.006;2023-02-08T01:23:29;8.33;;;6.27;;
30519;SDS011;17300;50.374;8.006;2023-02-08T01:25:56;8.73;;;6.90;;
30519;SDS011;17300;50.374;8.006;2023-02-08T01:28:23;7.80;;;6.47;;
30519;SDS011;17300;50.374;8.006;2023-02-08T01:30:51;9.47;;;6.40;;
30519;SDS011;17300;50.374;8.006;2023-02-08T01:33:17;7.97;;;6.47;;
30519;SDS011;17300;50.374;8.006;2023-02-08T01:35:44;7.77;;;6.30;;
30519;SDS011;17300;50.374;8.006;2023-02-08T01:38:11;7.93;;;6.10;;
30519;SDS011;17300;50.374;8.006;2023-02-08T01:40:37;8.33;;;6.20;;
30519;SDS011;17300;50.374;8.006;2023-02-08T01:43:05;8.20;;;5.90;;
30519;SDS011;17300;50.374;8.006;2023-02-08T01:45:39;8.83;;;6.07;;
30519;SDS011;17300;50.374;8.006;2023-02-08T01:48:07;8.43;;;6.77;;
30519;SDS011;17300;50.374;8.006;2023-02-08T01:50:40;7.10;;;5.90;;
30519;SDS011;17300;50.374;8.006;2023-02-08T01:53:12;8.47;;;6.30;;
30519;SDS011;17300;50.374;8.006;2023-02-08T01:55:41;8.27;;;6.30;;
30519;SDS011;17300;50.374;8.006;2023-02-08T01:58:11;8.53;;;5.83;;
30519;SDS011;17300;50.374;8.006;2023-02-08T02:00:39;7.57;;;6.17;;
30519;SDS011;17300;50.374;8.006;2023-02-08T02:03:07;8.53;;;5.77;;
30519;SDS011;17300;50.374;8.006;2023-02-08T02:05:34;7.53;;;6.00;;
30519;SDS011;17300;50.374;8.006;2023-02-08T02:08:06;7.43;;;6.00;;
30519;SDS011;17300;50.374;8.006;2023-02-08T02:10:34;7.13;;;6.00;;
30519;SDS011;17300;50.374;8.006;2023-02-08T02:13:02;8.03;;;5.97;;
30519;SDS011;17300;50.374;8.006;2023-02-08T02:15:32;6.97;;;5.87;;
30519;SDS011;17300;50.374;8.006;2023-02-08T02:17:59;7.90;;;6.30;;
30519;SDS011;17300;50.374;8.006;2023-02-08T02:20:30;7.30;;;6.20;;
30519;SDS011;17300;50.374;8.006;2023-02-08T02:23:09;7.33;;;5.80;;
30519;SDS011;17300;50.374;8.006;2023-02-08T02:29:05;8.43;;;6.30;;
30519;SDS011;17300;50.374;8.006;2023-02-08T02:31:54;8.83;;;6.27;;
30519;SDS011;17300;50.374;8.006;2023-02-08T02:34:28;9.10;;;6.77;;
30519;SDS011;17300;50.374;8.006;2023-02-08T02:37:05;8.33;;;6.53;;
30519;SDS011;17300;50.374;8.006;2023-02-08T02:39:40;10.70;;;7.07;;
30519;SDS011;17300;50.374;8.006;2023-02-08T02:42:12;10.73;;;6.83;;
30519;SDS011;17300;50.374;8.006;2023-02-08T02:45:03;7.70;;;6.40;;
30519;SDS011;17300;50.374;8.006;2023-02-08T02:47:37;9.73;;;6.63;;
30519;SDS011;17300;50.374;8.006;2023-02-08T02:50:11;7.80;;;6.97;;
30519;SDS011;17300;50.374;8.006;2023-02-08T02:52:44;9.23;;;6.93;;
30519;SDS011;17300;50.374;8.006;2023-02-08T02:55:17;8.07;;;6.50;;
30519;SDS011;17300;50.374;8.006;2023-02-08T02:57:49;7.90;;;6.67;;
30519;SDS011;17300;50.374;8.006;2023-02-08T03:00:19;9.17;;;7.30;;
30519;SDS011;17300;50.374;8.006;2023-02-08T03:02:50;8.37;;;6.70;;
30519;SDS011;17300;50.374;8.006;2023-02-08T03:05:17;8.10;;;6.10;;
30519;SDS011;17300;50.374;8.006;2023-02-08T03:07:49;8.33;;;7.03;;
30519;SDS011;17300;50.374;8.006;2023-02-08T03:10:35;9.67;;;6.90;;
30519;SDS011;17300;50.374;8.006;2023-02-08T03:13:17;8.83;;;6.93;;
30519;SDS011;17300;50.374;8.006;2023-02-08T03:15:55;10.20;;;6.83;;
30519;SDS011;17300;50.374;8.006;2023-02-08T03:18:34;7.13;;;6.10;;
30519;SDS011;17300;50.374;8.006;2023-02-08T03:21:09;8.57;;;6.40;;
30519;SDS011;17300;50.374;8.006;2023-02-08T03:23:44;7.30;;;6.27;;
30519;SDS011;17300;50.374;8.006;2023-02-08T03:26:18;8.30;;;6.90;;
30519;SDS011;17300;50.374;8.006;2023-02-08T03:28:50;9.07;;;6.70;;
30519;SDS011;17300;50.374;8.006;2023-02-08T03:31:24;7.63;;;6.40;;
30519;SDS011;17300;50.374;8.006;2023-02-08T03:33:57;8.03;;;6.23;;
30519;SDS011;17300;50.374;8.006;2023-02-08T03:36:32;7.63;;;6.10;;
30519;SDS011;17300;50.374;8.006;2023-02-08T03:39:05;8.07;;;6.57;;
30519;SDS011;17300;50.374;8.006;2023-02-08T03:41:37;8.33;;;6.67;;
30519;SDS011;17300;50.374;8.006;2023-02-08T03:44:08;8.70;;;6.50;;
30519;SDS011;17300;50.374;8.006;2023-02-08T03:46:38;7.63;;;6.43;;
30519;SDS011;17300;50.374;8.006;2023-02-08T03:49:10;7.47;;;6.50;;
30519;SDS011;17300;50.374;8.006;2023-02-08T03:51:41;9.20;;;6.53;;
30519;SDS011;17300;50.374;8.006;2023-02-08T03:54:10;9.47;;;6.97;;
30519;SDS011;17300;50.374;8.006;2023-02-08T03:56:42;8.40;;;6.60;;
30519;SDS011;17300;50.374;8.006;2023-02-08T03:59:12;7.67;;;6.47;;
30519;SDS011;17300;50.374;8.006;2023-02-08T04:01:43;8.83;;;6.40;;
30519;SDS011;17300;50.374;8.006;2023-02-08T04:04:14;7.40;;;6.33;;
30519;SDS011;17300;50.374;8.006;2023-02-08T04:06:43;7.97;;;6.63;;
30519;SDS011;17300;50.374;8.006;2023-02-08T04:09:09;8.10;;;6.60;;
30519;SDS011;17300;50.374;8.006;2023-02-08T04:11:36;10.03;;;6.27;;
30519;SDS011;17300;50.374;8.006;2023-02-08T04:14:03;7.30;;;6.20;;
30519;SDS011;17300;50.374;8.006;2023-02-08T04:16:29;8.33;;;6.60;;
30519;SDS011;17300;50.374;8.006;2023-02-08T04:18:56;8.70;;;6.40;;
30519;SDS011;17300;50.374;8.006;2023-02-08T04:21:24;7.83;;;6.00;;
30519;SDS011;17300;50.374;8.006;2023-02-08T04:23:51;7.13;;;5.90;;
30519;SDS011;17300;50.374;8.006;2023-02-08T04:26:18;6.60;;;5.83;;
30519;SDS011;17300;50.374;8.006;2023-02-08T04:28:44;7.93;;;6.30;;
30519;SDS011;17300;50.374;8.006;2023-02-08T04:31:11;7.03;;;5.80;;
30519;SDS011;17300;50.374;8.006;2023-02-08T04:33:38;8.77;;;5.70;;
30519;SDS011;17300;50.374;8.006;2023-02-08T04:36:04;8.10;;;5.87;;
30519;SDS011;17300;50.374;8.006;2023-02-08T04:38:33;7.60;;;5.87;;
30519;SDS011;17300;50.374;8.006;2023-02-08T04:41:00;6.47;;;5.70;;
30519;SDS011;17300;50.374;8.006;2023-02-08T04:43:27;7.20;;;5.90;;
30519;SDS011;17300;50.374;8.006;2023-02-08T04:45:53;7.63;;;6.10;;
30519;SDS011;17300;50.374;8.006;2023-02-08T04:48:20;8.17;;;6.20;;
30519;SDS011;17300;50.374;8.006;2023-02-08T04:50:47;7.53;;;6.03;;
30519;SDS011;17300;50.374;8.006;2023-02-08T04:53:13;10.17;;;6.37;;
30519;SDS011;17300;50.374;8.006;2023-02-08T04:55:42;6.93;;;6.23;;
30519;SDS011;17300;50.374;8.006;2023-02-08T04:58:08;6.80;;;6.10;;
30519;SDS011;17300;50.374;8.006;2023-02-08T05:00:35;7.90;;;6.70;;
30519;SDS011;17300;50.374;8.006;2023-02-08T05:03:02;7.87;;;6.47;;
30519;SDS011;17300;50.374;8.006;2023-02-08T05:05:28;8.00;;;6.13;;
30519;SDS011;17300;50.374;8.006;2023-02-08T05:07:55;7.97;;;6.03;;
30519;SDS011;17300;50.374;8.006;2023-02-08T05:10:22;7.23;;;6.17;;
30519;SDS011;17300;50.374;8.006;2023-02-08T05:12:50;8.67;;;6.50;;
30519;SDS011;17300;50.374;8.006;2023-02-08T05:15:17;7.83;;;6.27;;
30519;SDS011;17300;50.374;8.006;2023-02-08T05:17:43;8.30;;;6.27;;
30519;SDS011;17300;50.374;8.006;2023-02-08T05:20:10;7.30;;;6.27;;
30519;SDS011;17300;50.374;8.006;2023-02-08T05:22:38;9.00;;;6.77;;
30519;SDS011;17300;50.374;8.006;2023-02-08T05:25:05;8.03;;;6.23;;
30519;SDS011;17300;50.374;8.006;2023-02-08T05:27:33;9.17;;;6.37;;
30519;SDS011;17300;50.374;8.006;2023-02-08T05:30:02;7.53;;;6.23;;
30519;SDS011;17300;50.374;8.006;2023-02-08T05:32:29;9.97;;;7.10;;
30519;SDS011;17300;50.374;8.006;2023-02-08T05:34:56;7.77;;;5.90;;
30519;SDS011;17300;50.374;8.006;2023-02-08T05:37:23;9.30;;;6.27;;
30519;SDS011;17300;50.374;8.006;2023-02-08T05:39:49;8.87;;;6.10;;
30519;SDS011;17300;50.374;8.006;2023-02-08T05:45:08;6.33;;;5.70;;
30519;SDS011;17300;50.374;8.006;2023-02-08T05:51:46;6.93;;;5.53;;
30519;SDS011;17300;50.374;8.006;2023-02-08T05:58:21;8.40;;;5.60;;
30519;SDS011;17300;50.374;8.006;2023-02-08T06:00:49;7.50;;;5.63;;
30519;SDS011;17300;50.374;8.006;2023-02-08T06:03:21;8.40;;;6.50;;
30519;SDS011;17300;50.374;8.006;2023-02-08T06:05:48;7.73;;;5.87;;
30519;SDS011;17300;50.374;8.006;2023-02-08T06:08:15;8.20;;;6.00;;
30519;SDS011;17300;50.374;8.006;2023-02-08T06:13:34;7.23;;;5.80;;
30519;SDS011;17300;50.374;8.006;2023-02-08T06:16:02;6.17;;;5.43;;
30519;SDS011;17300;50.374;8.006;2023-02-08T06:18:29;7.10;;;5.70;;
30519;SDS011;17300;50.374;8.006;2023-02-08T06:20:55;7.90;;;6.57;;
30519;SDS011;17300;50.374;8.006;2023-02-08T06:23:22;9.60;;;6.70;;
30519;SDS011;17300;50.374;8.006;2023-02-08T06:25:49;10.10;;;7.23;;
30519;SDS011;17300;50.374;8.006;2023-02-08T06:28:16;10.00;;;7.60;;
30519;SDS011;17300;50.374;8.006;2023-02-08T06:30:43;10.57;;;7.50;;
30519;SDS011;17300;50.374;8.006;2023-02-08T06:33:11;9.07;;;8.00;;
30519;SDS011;17300;50.374;8.006;2023-02-08T06:35:37;11.70;;;7.77;;
30519;SDS011;17300;50.374;8.006;2023-02-08T06:38:04;9.87;;;7.83;;
30519;SDS011;17300;50.374;8.006;2023-02-08T06:40:31;9.30;;;7.60;;
30519;SDS011;17300;50.374;8.006;2023-02-08T06:42:57;9.73;;;8.07;;
30519;SDS011;17300;50.374;8.006;2023-02-08T06:45:24;10.07;;;8.43;;
30519;SDS011;17300;50.374;8.006;2023-02-08T06:47:51;11.73;;;9.17;;
30519;SDS011;17300;50.374;8.006;2023-02-08T06:50:19;11.10;;;9.00;;
30519;SDS011;17300;50.374;8.006;2023-02-08T06:52:45;10.50;;;9.40;;
30519;SDS011;17300;50.374;8.006;2023-02-08T06:55:12;11.83;;;9.27;;
30519;SDS011;17300;50.374;8.006;2023-02-08T06:57:39;13.43;;;8.90;;
30519;SDS011;17300;50.374;8.006;2023-02-08T07:00:06;11.00;;;8.97;;
30519;SDS011;17300;50.374;8.006;2023-02-08T07:02:34;11.70;;;9.00;;
30519;SDS011;17300;50.374;8.006;2023-02-08T07:05:00;11.00;;;8.57;;
30519;SDS011;17300;50.374;8.006;2023-02-08T07:07:28;11.33;;;8.50;;
30519;SDS011;17300;50.374;8.006;2023-02-08T07:09:55;10.47;;;8.47;;
30519;SDS011;17300;50.374;8.006;2023-02-08T07:12:21;10.40;;;8.43;;
30519;SDS011;17300;50.374;8.006;2023-02-08T07:14:48;10.97;;;8.23;;
30519;SDS011;17300;50.374;8.006;2023-02-08T07:17:15;9.63;;;7.80;;
30519;SDS011;17300;50.374;8.006;2023-02-08T07:19:42;10.03;;;8.07;;
30519;SDS011;17300;50.374;8.006;2023-02-08T07:22:08;9.63;;;7.93;;
30519;SDS011;17300;50.374;8.006;2023-02-08T07:24:38;9.77;;;8.63;;
30519;SDS011;17300;50.374;8.006;2023-02-08T07:27:06;9.63;;;8.07;;
30519;SDS011;17300;50.374;8.006;2023-02-08T07:29:34;11.63;;;8.40;;
30519;SDS011;17300;50.374;8.006;2023-02-08T07:32:02;11.10;;;8.50;;
30519;SDS011;17300;50.374;8.006;2023-02-08T07:34:30;9.77;;;7.90;;
30519;SDS011;17300;50.374;8.006;2023-02-08T07:36:58;8.97;;;7.50;;
30519;SDS011;17300;50.374;8.006;2023-02-08T07:39:25;9.63;;;7.80;;
30519;SDS011;17300;50.374;8.006;2023-02-08T07:41:53;8.83;;;7.43;;
30519;SDS011;17300;50.374;8.006;2023-02-08T07:44:20;10.93;;;8.20;;
30519;SDS011;17300;50.374;8.006;2023-02-08T07:46:46;9.37;;;7.70;;
30519;SDS011;17300;50.374;8.006;2023-02-08T07:49:13;8.67;;;7.03;;
30519;SDS011;17300;50.374;8.006;2023-02-08T07:51:40;10.50;;;7.53;;
30519;SDS011;17300;50.374;8.006;2023-02-08T07:54:07;8.47;;;6.93;;
30519;SDS011;17300;50.374;8.006;2023-02-08T07:56:33;7.80;;;6.97;;
30519;SDS011;17300;50.374;8.006;2023-02-08T07:59:01;9.37;;;6.77;;
30519;SDS011;17300;50.374;8.006;2023-02-08T08:01:28;9.60;;;6.87;;
30519;SDS011;17300;50.374;8.006;2023-02-08T08:03:55;9.07;;;7.50;;
30519;SDS011;17300;50.374;8.006;2023-02-08T08:06:22;9.03;;;7.57;;
30519;SDS011;17300;50.374;8.006;2023-02-08T08:08:49;9.73;;;7.10;;
30519;SDS011;17300;50.374;8.006;2023-02-08T08:11:16;8.83;;;7.80;;
30519;SDS011;17300;50.374;8.006;2023-02-08T08:13:44;9.17;;;7.40;;
30519;SDS011;17300;50.374;8.006;2023-02-08T08:16:13;8.87;;;7.33;;
30519;SDS011;17300;50.374;8.006;2023-02-08T08:18:39;7.83;;;6.90;;
30519;SDS011;17300;50.374;8.006;2023-02-08T08:21:06;9.70;;;7.23;;
30519;SDS011;17300;50.374;8.006;2023-02-08T08:23:33;8.83;;;7.93;;
30519;SDS011;17300;50.374;8.006;2023-02-08T08:26:04;9.20;;;7.77;;
30519;SDS011;17300;50.374;8.006;2023-02-08T08:28:32;8.77;;;7.50;;
30519;SDS011;17300;50.374;8.006;2023-02-08T08:30:59;9.43;;;7.57;;
30519;SDS011;17300;50.374;8.006;2023-02-08T08:33:27;8.93;;;8.03;;
30519;SDS011;17300;50.374;8.006;2023-02-08T08:35:54;8.23;;;7.43;;
30519;SDS011;17300;50.374;8.006;2023-02-08T08:38:20;9.60;;;7.83;;
30519;SDS011;17300;50.374;8.006;2023-02-08T08:40:47;8.10;;;7.30;;
30519;SDS011;17300;50.374;8.006;2023-02-08T08:43:13;8.93;;;8.03;;
30519;SDS011;17300;50.374;8.006;2023-02-08T08:45:41;9.83;;;8.27;;
30519;SDS011;17300;50.374;8.006;2023-02-08T08:48:08;9.10;;;8.20;;
30519;SDS011;17300;50.374;8.006;2023-02-08T08:50:36;8.67;;;7.87;;
30519;SDS011;17300;50.374;8.006;2023-02-08T08:53:03;9.00;;;8.20;;
30519;SDS011;17300;50.374;8.006;2023-02-08T08:55:30;8.87;;;8.07;;
30519;SDS011;17300;50.374;8.006;2023-02-08T08:57:57;9.13;;;8.13;;
30519;SDS011;17300;50.374;8.006;2023-02-08T09:00:23;9.20;;;8.30;;
30519;SDS011;17300;50.374;8.006;2023-02-08T09:02:51;9.80;;;8.90;;
30519;SDS011;17300;50.374;8.006;2023-02-08T09:05:18;9.80;;;8.93;;
30519;SDS011;17300;50.374;8.006;2023-02-08T09:07:46;10.23;;;9.20;;
30519;SDS011;17300;50.374;8.006;2023-02-08T09:10:12;10.30;;;9.40;;
30519;SDS011;17300;50.374;8.006;2023-02-08T09:12:39;10.77;;;9.87;;
30519;SDS011;17300;50.374;8.006;2023-02-08T09:15:06;10.67;;;9.67;;
30519;SDS011;17300;50.374;8.006;2023-02-08T09:17:33;11.02;;;10.13;;
30519;SDS011;17300;50.374;8.006;2023-02-08T09:20:00;11.18;;;10.13;;
30519;SDS011;17300;50.374;8.006;2023-02-08T09:22:26;11.05;;;10.05;;
30519;SDS011;17300;50.374;8.006;2023-02-08T09:24:54;11.52;;;10.43;;
30519;SDS011;17300;50.374;8.006;2023-02-08T09:27:21;10.98;;;9.88;;
30519;SDS011;17300;50.374;8.006;2023-02-08T09:29:48;11.27;;;10.18;;
30519;SDS011;17300;50.374;8.006;2023-02-08T09:32:14;10.85;;;9.80;;
30519;SDS011;17300;50.374;8.006;2023-02-08T09:34:41;11.52;;;10.38;;
30519;SDS011;17300;50.374;8.006;2023-02-08T09:37:08;11.13;;;10.13;;
30519;SDS011;17300;50.374;8.006;2023-02-08T09:39:34;9.95;;;9.05;;
30519;SDS011;17300;50.374;8.006;2023-02-08T09:42:23;10.75;;;9.57;;
30519;SDS011;17300;50.374;8.006;2023-02-08T09:45:04;10.32;;;9.45;;
30519;SDS011;17300;50.374;8.006;2023-02-08T09:47:43;10.57;;;9.60;;
30519;SDS011;17300;50.374;8.006;2023-02-08T09:50:17;10.68;;;9.68;;
30519;SDS011;17300;50.374;8.006;2023-02-08T09:52:48;10.60;;;9.68;;
30519;SDS011;17300;50.374;8.006;2023-02-08T09:55:20;10.30;;;9.40;;
30519;SDS011;17300;50.374;8.006;2023-02-08T09:57:54;9.73;;;8.82;;
30519;SDS011;17300;50.374;8.006;2023-02-08T10:00:24;9.32;;;8.52;;
30519;SDS011;17300;50.374;8.006;2023-02-08T10:03:00;8.80;;;8.00;;
30519;SDS011;17300;50.374;8.006;2023-02-08T10:05:28;8.27;;;7.57;;
30519;SDS011;17300;50.374;8.006;2023-02-08T10:07:56;8.82;;;7.80;;
30519;SDS011;17300;50.374;8.006;2023-02-08T10:10:29;8.02;;;7.32;;
30519;SDS011;17300;50.374;8.006;2023-02-08T10:13:09;7.75;;;7.05;;
30519;SDS011;17300;50.374;8.006;2023-02-08T10:15:49;7.68;;;6.97;;
30519;SDS011;17300;50.374;8.006;2023-02-08T10:18:28;8.25;;;7.55;;
30519;SDS011;17300;50.374;8.006;2023-02-08T10:21:12;8.20;;;7.50;;
30519;SDS011;17300;50.374;8.006;2023-02-08T10:23:52;7.38;;;6.72;;
30519;SDS011;17300;50.374;8.006;2023-02-08T10:26:32;7.85;;;7.22;;
30519;SDS011;17300;50.374;8.006;2023-02-08T10:29:17;7.97;;;7.30;;
30519;SDS011;17300;50.374;8.006;2023-02-08T10:32:01;7.82;;;7.03;;
30519;SDS011;17300;50.374;8.006;2023-02-08T10:34:44;7.60;;;6.95;;
30519;SDS011;17300;50.374;8.006;2023-02-08T10:37:13;7.32;;;6.75;;
30519;SDS011;17300;50.374;8.006;2023-02-08T10:39:41;7.97;;;7.18;;
30519;SDS011;17300;50.374;8.006;2023-02-08T10:42:12;8.15;;;7.45;;
30519;SDS011;17300;50.374;8.006;2023-02-08T10:44:46;9.20;;;7.53;;
30519;SDS011;17300;50.374;8.006;2023-02-08T10:47:24;8.63;;;7.82;;
30519;SDS011;17300;50.374;8.006;2023-02-08T10:50:01;8.40;;;7.50;;
30519;SDS011;17300;50.374;8.006;2023-02-08T10:52:32;8.52;;;7.72;;
30519;SDS011;17300;50.374;8.006;2023-02-08T10:54:58;8.30;;;7.60;;
30519;SDS011;17300;50.374;8.006;2023-02-08T10:57:27;8.25;;;7.45;;
30519;SDS011;17300;50.374;8.006;2023-02-08T10:59:58;7.70;;;7.00;;
30519;SDS011;17300;50.374;8.006;2023-02-08T11:02:30;7.57;;;6.97;;
30519;SDS011;17300;50.374;8.006;2023-02-08T11:04:59;7.32;;;6.70;;
30519;SDS011;17300;50.374;8.006;2023-02-08T11:07:27;8.38;;;7.57;;
30519;SDS011;17300;50.374;8.006;2023-02-08T11:12:41;7.53;;;6.82;;
30519;SDS011;17300;50.374;8.006;2023-02-08T11:15:23;7.75;;;7.05;;
30519;SDS011;17300;50.374;8.006;2023-02-08T11:17:52;7.53;;;6.90;;
30519;SDS011;17300;50.374;8.006;2023-02-08T11:20:22;7.45;;;6.85;;
30519;SDS011;17300;50.374;8.006;2023-02-08T11:22:55;6.88;;;6.28;;
30519;SDS011;17300;50.374;8.006;2023-02-08T11:25:29;7.35;;;6.70;;
30519;SDS011;17300;50.374;8.006;2023-02-08T11:27:58;7.78;;;6.53;;
30519;SDS011;17300;50.374;8.006;2023-02-08T11:30:26;7.63;;;6.93;;
30519;SDS011;17300;50.374;8.006;2023-02-08T11:33:13;7.77;;;7.07;;
30519;SDS011;17300;50.374;8.006;2023-02-08T11:35:53;7.50;;;6.80;;
30519;SDS011;17300;50.374;8.006;2023-02-08T11:38:23;7.33;;;6.73;;
30519;SDS011;17300;50.374;8.006;2023-02-08T11:40:52;7.13;;;6.53;;
30519;SDS011;17300;50.374;8.006;2023-02-08T11:43:21;7.60;;;6.97;;
30519;SDS011;17300;50.374;8.006;2023-02-08T11:45:51;6.87;;;6.27;;
30519;SDS011;17300;50.374;8.006;2023-02-08T11:48:21;7.67;;;6.97;;
30519;SDS011;17300;50.374;8.006;2023-02-08T11:50:54;7.77;;;7.07;;
30519;SDS011;17300;50.374;8.006;2023-02-08T11:53:25;7.67;;;6.97;;
30519;SDS011;17300;50.374;8.006;2023-02-08T11:56:06;7.60;;;6.93;;
30519;SDS011;17300;50.374;8.006;2023-02-08T11:58:40;8.60;;;6.40;;
30519;SDS011;17300;50.374;8.006;2023-02-08T12:01:16;7.17;;;6.47;;
30519;SDS011;17300;50.374;8.006;2023-02-08T12:03:45;7.00;;;6.40;;
30519;SDS011;17300;50.374;8.006;2023-02-08T12:06:22;6.97;;;6.37;;
30519;SDS011;17300;50.374;8.006;2023-02-08T12:09:00;7.10;;;6.17;;
30519;SDS011;17300;50.374;8.006;2023-02-08T12:11:34;7.00;;;6.40;;
30519;SDS011;17300;50.374;8.006;2023-02-08T12:14:12;6.97;;;5.93;;
30519;SDS011;17300;50.374;8.006;2023-02-08T12:19:54;6.43;;;5.83;;
30519;SDS011;17300;50.374;8.006;2023-02-08T12:22:28;6.60;;;6.00;;
30519;SDS011;17300;50.374;8.006;2023-02-08T12:24:59;6.43;;;5.80;;
30519;SDS011;17300;50.374;8.006;2023-02-08T12:27:37;6.80;;;6.20;;
30519;SDS011;17300;50.374;8.006;2023-02-08T12:30:10;5.93;;;5.43;;
30519;SDS011;17300;50.374;8.006;2023-02-08T12:32:48;6.13;;;5.60;;
30519;SDS011;17300;50.374;8.006;2023-02-08T12:38:15;6.00;;;5.47;;
30519;SDS011;17300;50.374;8.006;2023-02-08T12:41:04;5.93;;;5.37;;
30519;SDS011;17300;50.374;8.006;2023-02-08T12:43:44;5.90;;;5.30;;
30519;SDS011;17300;50.374;8.006;2023-02-08T12:49:27;5.70;;;5.20;;
30519;SDS011;17300;50.374;8.006;2023-02-08T12:52:17;6.00;;;5.40;;
30519;SDS011;17300;50.374;8.006;2023-02-08T12:54:57;5.70;;;5.20;;
30519;SDS011;17300;50.374;8.006;2023-02-08T12:57:28;5.40;;;4.90;;
30519;SDS011;17300;50.374;8.006;2023-02-08T12:59:57;5.73;;;5.23;;
30519;SDS011;17300;50.374;8.006;2023-02-08T13:02:28;5.70;;;5.03;;
30519;SDS011;17300;50.374;8.006;2023-02-08T13:04:59;5.00;;;4.43;;
30519;SDS011;17300;50.374;8.006;2023-02-08T13:07:31;4.80;;;4.27;;
30519;SDS011;17300;50.374;8.006;2023-02-08T13:10:01;5.50;;;4.60;;
30519;SDS011;17300;50.374;8.006;2023-02-08T13:12:31;4.97;;;4.40;;
30519;SDS011;17300;50.374;8.006;2023-02-08T13:15:02;4.80;;;4.30;;
30519;SDS011;17300;50.374;8.006;2023-02-08T13:17:37;4.60;;;4.10;;
30519;SDS011;17300;50.374;8.006;2023-02-08T13:20:18;5.17;;;4.67;;
30519;SDS011;17300;50.374;8.006;2023-02-08T13:22:52;4.77;;;4.27;;
30519;SDS011;17300;50.374;8.006;2023-02-08T13:25:25;5.03;;;4.53;;
30519;SDS011;17300;50.374;8.006;2023-02-08T13:27:58;4.40;;;4.00;;
30519;SDS011;17300;50.374;8.006;2023-02-08T13:30:26;4.03;;;3.67;;
30519;SDS011;17300;50.374;8.006;2023-02-08T13:32:53;4.50;;;4.10;;
30519;SDS011;17300;50.374;8.006;2023-02-08T13:35:24;4.67;;;4.20;;
30519;SDS011;17300;50.374;8.006;2023-02-08T13:37:54;4.47;;;4.07;;
30519;SDS011;17300;50.374;8.006;2023-02-08T13:40:27;4.50;;;4.10;;
30519;SDS011;17300;50.374;8.006;2023-02-08T13:42:57;4.90;;;3.87;;
30519;SDS011;17300;50.374;8.006;2023-02-08T13:45:27;4.27;;;3.87;;
30519;SDS011;17300;50.374;8.006;2023-02-08T13:47:56;4.50;;;4.10;;
30519;SDS011;17300;50.374;8.006;2023-02-08T13:50:38;4.43;;;3.77;;
30519;SDS011;17300;50.374;8.006;2023-02-08T13:53:08;4.40;;;4.00;;
30519;SDS011;17300;50.374;8.006;2023-02-08T13:55:39;4.53;;;4.13;;
30519;SDS011;17300;50.374;8.006;2023-02-08T13:58:26;4.37;;;3.97;;
30519;SDS011;17300;50.374;8.006;2023-02-08T14:01:00;5.07;;;3.90;;
30519;SDS011;17300;50.374;8.006;2023-02-08T14:03:37;4.10;;;3.53;;
30519;SDS011;17300;50.374;8.006;2023-02-08T14:06:06;4.47;;;3.67;;
30519;SDS011;17300;50.374;8.006;2023-02-08T14:08:44;3.63;;;3.30;;
30519;SDS011;17300;50.374;8.006;2023-02-08T14:11:20;3.73;;;3.30;;
30519;SDS011;17300;50.374;8.006;2023-02-08T14:13:58;4.10;;;3.67;;
30519;SDS011;17300;50.374;8.006;2023-02-08T14:16:28;3.80;;;3.30;;
30519;SDS011;17300;50.374;8.006;2023-02-08T14:18:57;4.20;;;3.60;;
30519;SDS011;17300;50.374;8.006;2023-02-08T14:21:29;4.07;;;3.67;;
30519;SDS011;17300;50.374;8.006;2023-02-08T14:23:59;4.17;;;3.77;;
30519;SDS011;17300;50.374;8.006;2023-02-08T14:26:28;5.10;;;4.07;;
30519;SDS011;17300;50.374;8.006;2023-02-08T14:28:56;3.73;;;3.40;;
30519;SDS011;17300;50.374;8.006;2023-02-08T14:31:38;4.20;;;3.77;;
30519;SDS011;17300;50.374;8.006;2023-02-08T14:34:19;4.50;;;3.53;;
30519;SDS011;17300;50.374;8.006;2023-02-08T14:36:58;4.03;;;3.57;;
30519;SDS011;17300;50.374;8.006;2023-02-08T14:39:28;5.93;;;3.73;;
30519;SDS011;17300;50.374;8.006;2023-02-08T14:41:57;4.07;;;3.63;;
30519;SDS011;17300;50.374;8.006;2023-02-08T14:50:21;4.43;;;3.63;;
30519;SDS011;17300;50.374;8.006;2023-02-08T14:52:56;4.43;;;3.80;;
30519;SDS011;17300;50.374;8.006;2023-02-08T14:55:31;3.93;;;3.50;;
30519;SDS011;17300;50.374;8.006;2023-02-08T14:58:04;3.97;;;3.30;;
30519;SDS011;17300;50.374;8.006;2023-02-08T15:00:36;3.67;;;3.30;;
30519;SDS011;17300;50.374;8.006;2023-02-08T15:03:04;4.23;;;3.60;;
30519;SDS011;17300;50.374;8.006;2023-02-08T15:05:40;3.50;;;3.20;;
30519;SDS011;17300;50.374;8.006;2023-02-08T15:08:18;3.67;;;3.20;;
30519;SDS011;17300;50.374;8.006;2023-02-08T15:10:45;3.20;;;2.80;;
30519;SDS011;17300;50.374;8.006;2023-02-08T15:13:16;4.23;;;3.23;;
30519;SDS011;17300;50.374;8.006;2023-02-08T15:15:48;4.00;;;3.13;;
30519;SDS011;17300;50.374;8.006;2023-02-08T15:18:17;3.37;;;3.07;;
30519;SDS011;17300;50.374;8.006;2023-02-08T15:20:53;3.13;;;2.83;;
30519;SDS011;17300;50.374;8.006;2023-02-08T15:23:29;3.97;;;3.40;;
30519;SDS011;17300;50.374;8.006;2023-02-08T15:25:57;4.00;;;3.30;;
30519;SDS011;17300;50.374;8.006;2023-02-08T15:28:26;3.03;;;2.67;;
30519;SDS011;17300;50.374;8.006;2023-02-08T15:30:54;3.53;;;2.87;;
30519;SDS011;17300;50.374;8.006;2023-02-08T15:33:23;4.73;;;3.03;;
30519;SDS011;17300;50.374;8.006;2023-02-08T15:35:55;3.30;;;3.00;;
30519;SDS011;17300;50.374;8.006;2023-02-08T15:38:23;3.77;;;3.27;;
30519;SDS011;17300;50.374;8.006;2023-02-08T15:41:02;4.17;;;3.27;;